Aérodrome :
LOGIN :

S'inscrire | Disclaimer

   EN    FR    IT 

 










Légende :    VFR   VFR Marginal   IFR   IFR Intensif   IFR Très Intensif
Visi : 
Plafond : 
>= 8 km
>= 3000ft
5 à 8 km
1000 à 3000 ft
1500m à 5 km
500 à 1000 ft
800 à 1500m
200 à 500 ft
< 800m
< 200 ft
Symboles :   Orages  Brouillard  Fortes neiges  Fortes précipitations  Vent > 20 kt
SIGMETs :   Divers  Orages  Givrage  Turbulence  Onde Orograph.  Cendres Volcan.







- Altitude de l'aérodrome : 39 ft


ETNH - Hohn AB

DERNIER METAR :
  • 231120Z 31018KT 9999 SCT017 BKN035 15/10 Q1020 BLU

METARs EXPIRÉS :
  • 231040Z 31015KT 9999 FEW010 SCT015 BKN035 13/11 Q1020 BLU
  • 231027Z 30018KT 7000 -SHRA FEW008 BKN015 BKN037 14/10 Q1020 WHT
  • 231020Z 30018KT 9999 FEW008 SCT013 BKN037 14/10 Q1020 BLU
  • 230920Z 30017KT 9999 FEW010 SCT015TCU BKN043 14/10 Q1020 RESHRA BLU

TAF TAF ETNH
Valide du 23 à 11h jusqu'au 23 à 23h UTC


231000Z 2311/2323 30012G22KT 9999 NSW BKN030
TEMPO 2306/2317 31015G30KT 5000 -RADZ BKN020
BECMG 2317/2319 30008KT 8000 NSW BKN020 BY ETGL
Pas de NOTAMs connus pour ce terrain.



MET'MAP, la Météo Aéronautique d'un coup d'oeil ! - Copyright ORBIFLY Décembre 2007 - Disclaimer

ORBIFLY MET'MAP TEAM :

Programmation & Développement : Alexandra Zaïnal
Conception & Développement : Baudouin d'Aumeries
Co-Programmation & Développement : Marc-Olivier Méhu
Soutien technique & logistique : Manuel Goepfert

Contact : metmap@orbifly.com




SOURCES & CREDITS :

   NOAA